sensor_id;sensor_type;location;lat;lon;timestamp;P1;durP1;ratioP1;P2;durP2;ratioP2
48052;SDS011;33824;51.600;5.718;2023-11-19T00:00:04;4.25;;;1.92;;
48052;SDS011;33824;51.600;5.718;2023-11-19T00:02:36;4.32;;;2.55;;
48052;SDS011;33824;51.600;5.718;2023-11-19T00:05:02;2.78;;;1.58;;
48052;SDS011;33824;51.600;5.718;2023-11-19T00:07:27;5.00;;;1.98;;
48052;SDS011;33824;51.600;5.718;2023-11-19T00:09:54;7.50;;;2.00;;
48052;SDS011;33824;51.600;5.718;2023-11-19T00:12:20;4.90;;;1.65;;
48052;SDS011;33824;51.600;5.718;2023-11-19T00:14:46;4.25;;;1.90;;
48052;SDS011;33824;51.600;5.718;2023-11-19T00:17:11;4.57;;;1.80;;
48052;SDS011;33824;51.600;5.718;2023-11-19T00:19:37;3.08;;;1.73;;
48052;SDS011;33824;51.600;5.718;2023-11-19T00:22:02;7.38;;;1.83;;
48052;SDS011;33824;51.600;5.718;2023-11-19T00:24:29;2.45;;;1.50;;
48052;SDS011;33824;51.600;5.718;2023-11-19T00:26:55;6.50;;;2.17;;
48052;SDS011;33824;51.600;5.718;2023-11-19T00:29:21;4.70;;;1.65;;
48052;SDS011;33824;51.600;5.718;2023-11-19T00:31:47;3.35;;;1.48;;
48052;SDS011;33824;51.600;5.718;2023-11-19T00:34:13;4.88;;;1.83;;
48052;SDS011;33824;51.600;5.718;2023-11-19T00:36:38;8.60;;;2.70;;
48052;SDS011;33824;51.600;5.718;2023-11-19T00:39:04;10.23;;;1.95;;
48052;SDS011;33824;51.600;5.718;2023-11-19T00:41:31;7.53;;;2.00;;
48052;SDS011;33824;51.600;5.718;2023-11-19T00:43:56;6.22;;;1.88;;
48052;SDS011;33824;51.600;5.718;2023-11-19T00:46:21;4.95;;;1.40;;
48052;SDS011;33824;51.600;5.718;2023-11-19T00:48:47;8.15;;;1.67;;
48052;SDS011;33824;51.600;5.718;2023-11-19T00:51:12;4.72;;;2.20;;
48052;SDS011;33824;51.600;5.718;2023-11-19T00:53:38;5.20;;;1.52;;
48052;SDS011;33824;51.600;5.718;2023-11-19T00:56:04;5.65;;;1.85;;
48052;SDS011;33824;51.600;5.718;2023-11-19T00:58:30;12.05;;;2.50;;
48052;SDS011;33824;51.600;5.718;2023-11-19T01:00:55;7.72;;;1.67;;
48052;SDS011;33824;51.600;5.718;2023-11-19T01:03:22;5.50;;;1.38;;
48052;SDS011;33824;51.600;5.718;2023-11-19T01:05:48;10.80;;;1.90;;
48052;SDS011;33824;51.600;5.718;2023-11-19T01:08:13;6.82;;;1.50;;
48052;SDS011;33824;51.600;5.718;2023-11-19T01:10:39;4.88;;;1.40;;
48052;SDS011;33824;51.600;5.718;2023-11-19T01:13:05;4.05;;;1.45;;
48052;SDS011;33824;51.600;5.718;2023-11-19T01:15:33;10.30;;;2.00;;
48052;SDS011;33824;51.600;5.718;2023-11-19T01:17:59;9.80;;;1.70;;
48052;SDS011;33824;51.600;5.718;2023-11-19T01:20:27;7.38;;;1.58;;
48052;SDS011;33824;51.600;5.718;2023-11-19T01:22:52;6.53;;;1.70;;
48052;SDS011;33824;51.600;5.718;2023-11-19T01:25:18;8.35;;;2.03;;
48052;SDS011;33824;51.600;5.718;2023-11-19T01:27:43;13.82;;;2.15;;
48052;SDS011;33824;51.600;5.718;2023-11-19T01:30:09;9.82;;;2.30;;
48052;SDS011;33824;51.600;5.718;2023-11-19T01:32:38;8.90;;;1.40;;
48052;SDS011;33824;51.600;5.718;2023-11-19T01:35:05;8.10;;;1.73;;
48052;SDS011;33824;51.600;5.718;2023-11-19T01:37:31;8.65;;;1.50;;
48052;SDS011;33824;51.600;5.718;2023-11-19T01:39:57;8.48;;;1.85;;
48052;SDS011;33824;51.600;5.718;2023-11-19T01:42:24;15.23;;;1.73;;
48052;SDS011;33824;51.600;5.718;2023-11-19T01:45:00;9.75;;;2.05;;
48052;SDS011;33824;51.600;5.718;2023-11-19T01:47:26;11.93;;;1.55;;
48052;SDS011;33824;51.600;5.718;2023-11-19T01:49:53;12.23;;;2.10;;
48052;SDS011;33824;51.600;5.718;2023-11-19T01:52:19;11.95;;;1.60;;
48052;SDS011;33824;51.600;5.718;2023-11-19T01:54:45;12.68;;;2.15;;
48052;SDS011;33824;51.600;5.718;2023-11-19T01:57:12;10.27;;;2.03;;
48052;SDS011;33824;51.600;5.718;2023-11-19T01:59:38;11.25;;;1.58;;
48052;SDS011;33824;51.600;5.718;2023-11-19T02:02:05;9.82;;;2.00;;
48052;SDS011;33824;51.600;5.718;2023-11-19T02:04:31;16.75;;;2.70;;
48052;SDS011;33824;51.600;5.718;2023-11-19T02:06:57;8.98;;;2.33;;
48052;SDS011;33824;51.600;5.718;2023-11-19T02:09:23;17.58;;;2.33;;
48052;SDS011;33824;51.600;5.718;2023-11-19T02:11:49;11.55;;;2.28;;
48052;SDS011;33824;51.600;5.718;2023-11-19T02:14:16;8.15;;;1.85;;
48052;SDS011;33824;51.600;5.718;2023-11-19T02:16:43;14.27;;;2.05;;
48052;SDS011;33824;51.600;5.718;2023-11-19T02:19:09;13.20;;;2.15;;
48052;SDS011;33824;51.600;5.718;2023-11-19T02:21:36;7.38;;;1.48;;
48052;SDS011;33824;51.600;5.718;2023-11-19T02:24:03;12.45;;;1.60;;
48052;SDS011;33824;51.600;5.718;2023-11-19T02:26:47;16.25;;;2.80;;
48052;SDS011;33824;51.600;5.718;2023-11-19T02:29:21;13.35;;;2.28;;
48052;SDS011;33824;51.600;5.718;2023-11-19T02:31:47;14.05;;;2.33;;
48052;SDS011;33824;51.600;5.718;2023-11-19T02:34:13;19.73;;;2.40;;
48052;SDS011;33824;51.600;5.718;2023-11-19T02:36:39;10.88;;;2.10;;
48052;SDS011;33824;51.600;5.718;2023-11-19T02:39:06;11.93;;;2.75;;
48052;SDS011;33824;51.600;5.718;2023-11-19T02:41:36;18.05;;;3.15;;
48052;SDS011;33824;51.600;5.718;2023-11-19T02:44:01;20.08;;;3.20;;
48052;SDS011;33824;51.600;5.718;2023-11-19T02:46:27;14.30;;;3.00;;
48052;SDS011;33824;51.600;5.718;2023-11-19T02:48:52;22.23;;;3.17;;
48052;SDS011;33824;51.600;5.718;2023-11-19T02:51:18;21.77;;;3.17;;
48052;SDS011;33824;51.600;5.718;2023-11-19T02:53:44;16.73;;;2.55;;
48052;SDS011;33824;51.600;5.718;2023-11-19T02:56:09;19.70;;;3.08;;
48052;SDS011;33824;51.600;5.718;2023-11-19T02:58:42;16.88;;;2.65;;
48052;SDS011;33824;51.600;5.718;2023-11-19T03:01:10;18.23;;;2.80;;
48052;SDS011;33824;51.600;5.718;2023-11-19T03:03:44;17.10;;;2.30;;
48052;SDS011;33824;51.600;5.718;2023-11-19T03:06:14;20.02;;;2.85;;
48052;SDS011;33824;51.600;5.718;2023-11-19T03:08:40;19.15;;;2.85;;
48052;SDS011;33824;51.600;5.718;2023-11-19T03:11:05;17.58;;;2.83;;
48052;SDS011;33824;51.600;5.718;2023-11-19T03:13:31;26.77;;;3.13;;
48052;SDS011;33824;51.600;5.718;2023-11-19T03:15:56;28.00;;;3.05;;
48052;SDS011;33824;51.600;5.718;2023-11-19T03:18:22;24.67;;;3.38;;
48052;SDS011;33824;51.600;5.718;2023-11-19T03:20:47;20.83;;;4.10;;
48052;SDS011;33824;51.600;5.718;2023-11-19T03:23:13;27.27;;;3.00;;
48052;SDS011;33824;51.600;5.718;2023-11-19T03:25:39;26.95;;;3.38;;
48052;SDS011;33824;51.600;5.718;2023-11-19T03:28:04;18.30;;;3.28;;
48052;SDS011;33824;51.600;5.718;2023-11-19T03:30:30;19.70;;;3.22;;
48052;SDS011;33824;51.600;5.718;2023-11-19T03:32:56;17.92;;;2.90;;
48052;SDS011;33824;51.600;5.718;2023-11-19T03:35:22;27.02;;;4.25;;
48052;SDS011;33824;51.600;5.718;2023-11-19T03:37:48;20.00;;;3.53;;
48052;SDS011;33824;51.600;5.718;2023-11-19T03:40:15;19.35;;;3.47;;
48052;SDS011;33824;51.600;5.718;2023-11-19T03:42:40;20.95;;;2.67;;
48052;SDS011;33824;51.600;5.718;2023-11-19T03:45:06;26.77;;;3.53;;
48052;SDS011;33824;51.600;5.718;2023-11-19T03:47:35;23.40;;;2.88;;
48052;SDS011;33824;51.600;5.718;2023-11-19T03:50:01;32.38;;;3.95;;
48052;SDS011;33824;51.600;5.718;2023-11-19T03:52:27;22.75;;;3.03;;
48052;SDS011;33824;51.600;5.718;2023-11-19T03:54:53;23.90;;;4.93;;
48052;SDS011;33824;51.600;5.718;2023-11-19T03:57:20;22.10;;;3.80;;
48052;SDS011;33824;51.600;5.718;2023-11-19T03:59:46;30.35;;;4.38;;
48052;SDS011;33824;51.600;5.718;2023-11-19T04:02:12;25.90;;;4.00;;
48052;SDS011;33824;51.600;5.718;2023-11-19T04:04:38;33.45;;;4.18;;
48052;SDS011;33824;51.600;5.718;2023-11-19T04:07:04;17.20;;;3.53;;
48052;SDS011;33824;51.600;5.718;2023-11-19T04:09:31;27.63;;;3.80;;
48052;SDS011;33824;51.600;5.718;2023-11-19T04:11:58;29.73;;;3.45;;
48052;SDS011;33824;51.600;5.718;2023-11-19T04:14:25;42.45;;;5.07;;
48052;SDS011;33824;51.600;5.718;2023-11-19T04:16:51;31.30;;;4.00;;
48052;SDS011;33824;51.600;5.718;2023-11-19T04:19:18;28.88;;;4.15;;
48052;SDS011;33824;51.600;5.718;2023-11-19T04:21:44;28.80;;;4.10;;
48052;SDS011;33824;51.600;5.718;2023-11-19T04:24:10;26.38;;;4.25;;
48052;SDS011;33824;51.600;5.718;2023-11-19T04:26:44;24.20;;;4.20;;
48052;SDS011;33824;51.600;5.718;2023-11-19T04:29:11;33.50;;;5.20;;
48052;SDS011;33824;51.600;5.718;2023-11-19T04:31:38;28.73;;;3.90;;
48052;SDS011;33824;51.600;5.718;2023-11-19T04:34:05;33.17;;;5.28;;
48052;SDS011;33824;51.600;5.718;2023-11-19T04:36:31;38.05;;;5.55;;
48052;SDS011;33824;51.600;5.718;2023-11-19T04:38:58;33.67;;;4.35;;
48052;SDS011;33824;51.600;5.718;2023-11-19T04:41:25;31.67;;;4.72;;
48052;SDS011;33824;51.600;5.718;2023-11-19T04:43:53;30.70;;;4.63;;
48052;SDS011;33824;51.600;5.718;2023-11-19T04:46:19;28.75;;;4.95;;
48052;SDS011;33824;51.600;5.718;2023-11-19T04:48:45;29.48;;;3.88;;
48052;SDS011;33824;51.600;5.718;2023-11-19T04:51:10;38.72;;;4.85;;
48052;SDS011;33824;51.600;5.718;2023-11-19T04:53:36;31.70;;;4.85;;
48052;SDS011;33824;51.600;5.718;2023-11-19T04:56:07;27.48;;;4.43;;
48052;SDS011;33824;51.600;5.718;2023-11-19T04:58:34;34.15;;;4.00;;
48052;SDS011;33824;51.600;5.718;2023-11-19T05:01:01;33.10;;;5.18;;
48052;SDS011;33824;51.600;5.718;2023-11-19T05:03:27;39.03;;;5.88;;
48052;SDS011;33824;51.600;5.718;2023-11-19T05:05:52;32.95;;;4.93;;
48052;SDS011;33824;51.600;5.718;2023-11-19T05:08:19;41.72;;;5.90;;
48052;SDS011;33824;51.600;5.718;2023-11-19T05:10:44;30.73;;;6.03;;
48052;SDS011;33824;51.600;5.718;2023-11-19T05:13:10;20.17;;;3.72;;
48052;SDS011;33824;51.600;5.718;2023-11-19T05:15:35;30.63;;;4.45;;
48052;SDS011;33824;51.600;5.718;2023-11-19T05:18:01;28.95;;;4.07;;
48052;SDS011;33824;51.600;5.718;2023-11-19T05:20:26;35.13;;;4.28;;
48052;SDS011;33824;51.600;5.718;2023-11-19T05:22:52;34.97;;;3.95;;
48052;SDS011;33824;51.600;5.718;2023-11-19T05:25:18;33.10;;;5.30;;
48052;SDS011;33824;51.600;5.718;2023-11-19T05:27:45;26.48;;;4.07;;
48052;SDS011;33824;51.600;5.718;2023-11-19T05:30:11;42.97;;;4.50;;
48052;SDS011;33824;51.600;5.718;2023-11-19T05:32:37;39.13;;;5.72;;
48052;SDS011;33824;51.600;5.718;2023-11-19T05:35:02;36.97;;;4.82;;
48052;SDS011;33824;51.600;5.718;2023-11-19T05:37:28;36.40;;;4.75;;
48052;SDS011;33824;51.600;5.718;2023-11-19T05:39:54;31.58;;;4.13;;
48052;SDS011;33824;51.600;5.718;2023-11-19T05:42:20;32.13;;;4.75;;
48052;SDS011;33824;51.600;5.718;2023-11-19T05:44:47;30.50;;;4.18;;
48052;SDS011;33824;51.600;5.718;2023-11-19T05:47:12;34.28;;;4.72;;
48052;SDS011;33824;51.600;5.718;2023-11-19T05:49:38;29.10;;;4.93;;
48052;SDS011;33824;51.600;5.718;2023-11-19T05:52:04;30.42;;;4.30;;
48052;SDS011;33824;51.600;5.718;2023-11-19T05:54:32;28.23;;;5.00;;
48052;SDS011;33824;51.600;5.718;2023-11-19T05:57:05;27.08;;;4.22;;
48052;SDS011;33824;51.600;5.718;2023-11-19T05:59:34;42.95;;;5.35;;
48052;SDS011;33824;51.600;5.718;2023-11-19T06:02:01;30.55;;;4.93;;
48052;SDS011;33824;51.600;5.718;2023-11-19T06:04:27;34.30;;;6.10;;
48052;SDS011;33824;51.600;5.718;2023-11-19T06:06:53;34.80;;;4.78;;
48052;SDS011;33824;51.600;5.718;2023-11-19T06:09:20;35.92;;;4.65;;
48052;SDS011;33824;51.600;5.718;2023-11-19T06:11:48;34.83;;;6.13;;
48052;SDS011;33824;51.600;5.718;2023-11-19T06:14:17;24.63;;;4.10;;
48052;SDS011;33824;51.600;5.718;2023-11-19T06:16:43;29.95;;;4.90;;
48052;SDS011;33824;51.600;5.718;2023-11-19T06:19:09;43.10;;;5.22;;
48052;SDS011;33824;51.600;5.718;2023-11-19T06:21:36;28.52;;;4.28;;
48052;SDS011;33824;51.600;5.718;2023-11-19T06:24:02;32.95;;;6.07;;
48052;SDS011;33824;51.600;5.718;2023-11-19T06:26:27;43.42;;;5.35;;
48052;SDS011;33824;51.600;5.718;2023-11-19T06:28:53;30.35;;;4.93;;
48052;SDS011;33824;51.600;5.718;2023-11-19T06:31:19;35.90;;;5.68;;
48052;SDS011;33824;51.600;5.718;2023-11-19T06:33:45;43.00;;;5.60;;
48052;SDS011;33824;51.600;5.718;2023-11-19T06:36:14;32.38;;;6.20;;
48052;SDS011;33824;51.600;5.718;2023-11-19T06:38:41;32.13;;;4.10;;
48052;SDS011;33824;51.600;5.718;2023-11-19T06:41:07;37.70;;;5.72;;
48052;SDS011;33824;51.600;5.718;2023-11-19T06:43:34;39.63;;;5.63;;
48052;SDS011;33824;51.600;5.718;2023-11-19T06:46:00;32.33;;;6.18;;
48052;SDS011;33824;51.600;5.718;2023-11-19T06:48:27;34.80;;;4.82;;
48052;SDS011;33824;51.600;5.718;2023-11-19T06:50:52;30.75;;;3.85;;
48052;SDS011;33824;51.600;5.718;2023-11-19T06:53:18;34.53;;;4.45;;
48052;SDS011;33824;51.600;5.718;2023-11-19T06:55:44;39.60;;;5.03;;
48052;SDS011;33824;51.600;5.718;2023-11-19T06:58:10;34.88;;;4.57;;
48052;SDS011;33824;51.600;5.718;2023-11-19T07:00:37;32.80;;;4.35;;
48052;SDS011;33824;51.600;5.718;2023-11-19T07:03:03;32.03;;;4.65;;
48052;SDS011;33824;51.600;5.718;2023-11-19T07:05:28;45.35;;;6.20;;
48052;SDS011;33824;51.600;5.718;2023-11-19T07:07:55;33.42;;;4.38;;
48052;SDS011;33824;51.600;5.718;2023-11-19T07:10:21;38.22;;;5.30;;
48052;SDS011;33824;51.600;5.718;2023-11-19T07:12:46;27.40;;;4.18;;
48052;SDS011;33824;51.600;5.718;2023-11-19T07:15:12;34.20;;;4.28;;
48052;SDS011;33824;51.600;5.718;2023-11-19T07:17:38;42.63;;;5.82;;
48052;SDS011;33824;51.600;5.718;2023-11-19T07:20:05;36.58;;;5.55;;
48052;SDS011;33824;51.600;5.718;2023-11-19T07:22:31;34.65;;;5.07;;
48052;SDS011;33824;51.600;5.718;2023-11-19T07:24:57;38.60;;;4.53;;
48052;SDS011;33824;51.600;5.718;2023-11-19T07:27:22;32.03;;;3.88;;
48052;SDS011;33824;51.600;5.718;2023-11-19T07:29:49;31.55;;;4.25;;
48052;SDS011;33824;51.600;5.718;2023-11-19T07:32:15;32.88;;;3.97;;
48052;SDS011;33824;51.600;5.718;2023-11-19T07:34:40;41.70;;;4.75;;
48052;SDS011;33824;51.600;5.718;2023-11-19T07:37:06;46.42;;;6.50;;
48052;SDS011;33824;51.600;5.718;2023-11-19T07:39:32;45.63;;;5.85;;
48052;SDS011;33824;51.600;5.718;2023-11-19T07:41:58;39.63;;;5.57;;
48052;SDS011;33824;51.600;5.718;2023-11-19T07:44:23;29.15;;;4.50;;
48052;SDS011;33824;51.600;5.718;2023-11-19T07:46:49;40.42;;;5.30;;
48052;SDS011;33824;51.600;5.718;2023-11-19T07:49:15;40.65;;;6.07;;
48052;SDS011;33824;51.600;5.718;2023-11-19T07:51:40;33.75;;;4.78;;
48052;SDS011;33824;51.600;5.718;2023-11-19T07:54:07;35.10;;;4.43;;
48052;SDS011;33824;51.600;5.718;2023-11-19T07:56:35;39.35;;;4.22;;
48052;SDS011;33824;51.600;5.718;2023-11-19T07:59:03;30.25;;;5.47;;
48052;SDS011;33824;51.600;5.718;2023-11-19T08:01:29;33.55;;;4.57;;
48052;SDS011;33824;51.600;5.718;2023-11-19T08:03:55;29.17;;;4.38;;
48052;SDS011;33824;51.600;5.718;2023-11-19T08:06:20;45.60;;;6.05;;
48052;SDS011;33824;51.600;5.718;2023-11-19T08:08:46;34.30;;;4.78;;
48052;SDS011;33824;51.600;5.718;2023-11-19T08:11:13;30.08;;;4.82;;
48052;SDS011;33824;51.600;5.718;2023-11-19T08:13:39;36.80;;;5.03;;
48052;SDS011;33824;51.600;5.718;2023-11-19T08:16:04;38.17;;;5.43;;
48052;SDS011;33824;51.600;5.718;2023-11-19T08:18:31;32.17;;;4.43;;
48052;SDS011;33824;51.600;5.718;2023-11-19T08:20:56;34.47;;;5.68;;
48052;SDS011;33824;51.600;5.718;2023-11-19T08:23:23;37.50;;;4.25;;
48052;SDS011;33824;51.600;5.718;2023-11-19T08:25:50;37.15;;;5.03;;
48052;SDS011;33824;51.600;5.718;2023-11-19T08:28:16;33.35;;;4.43;;
48052;SDS011;33824;51.600;5.718;2023-11-19T08:30:42;36.17;;;4.45;;
48052;SDS011;33824;51.600;5.718;2023-11-19T08:33:09;40.28;;;5.43;;
48052;SDS011;33824;51.600;5.718;2023-11-19T08:35:35;38.33;;;4.50;;
48052;SDS011;33824;51.600;5.718;2023-11-19T08:38:01;38.72;;;4.70;;
48052;SDS011;33824;51.600;5.718;2023-11-19T08:40:27;29.17;;;4.60;;
48052;SDS011;33824;51.600;5.718;2023-11-19T08:42:53;32.75;;;4.45;;
48052;SDS011;33824;51.600;5.718;2023-11-19T08:45:18;38.63;;;5.95;;
48052;SDS011;33824;51.600;5.718;2023-11-19T08:47:44;33.13;;;4.82;;
48052;SDS011;33824;51.600;5.718;2023-11-19T08:50:11;47.00;;;5.22;;
48052;SDS011;33824;51.600;5.718;2023-11-19T08:52:37;28.30;;;5.10;;
48052;SDS011;33824;51.600;5.718;2023-11-19T08:55:03;38.28;;;4.85;;
48052;SDS011;33824;51.600;5.718;2023-11-19T08:57:31;30.65;;;3.95;;
48052;SDS011;33824;51.600;5.718;2023-11-19T08:59:58;35.63;;;4.80;;
48052;SDS011;33824;51.600;5.718;2023-11-19T09:02:24;35.72;;;5.10;;
48052;SDS011;33824;51.600;5.718;2023-11-19T09:04:49;43.53;;;5.72;;
48052;SDS011;33824;51.600;5.718;2023-11-19T09:07:15;34.97;;;5.05;;
48052;SDS011;33824;51.600;5.718;2023-11-19T09:09:40;31.20;;;5.43;;
48052;SDS011;33824;51.600;5.718;2023-11-19T09:12:06;51.40;;;6.15;;
48052;SDS011;33824;51.600;5.718;2023-11-19T09:14:32;28.92;;;4.10;;
48052;SDS011;33824;51.600;5.718;2023-11-19T09:16:58;29.92;;;6.07;;
48052;SDS011;33824;51.600;5.718;2023-11-19T09:19:24;43.20;;;5.70;;
48052;SDS011;33824;51.600;5.718;2023-11-19T09:21:52;36.75;;;5.00;;
48052;SDS011;33824;51.600;5.718;2023-11-19T09:24:18;37.70;;;5.63;;
48052;SDS011;33824;51.600;5.718;2023-11-19T09:26:43;39.08;;;4.47;;
48052;SDS011;33824;51.600;5.718;2023-11-19T09:29:09;35.80;;;4.55;;
48052;SDS011;33824;51.600;5.718;2023-11-19T09:31:35;34.75;;;5.93;;
48052;SDS011;33824;51.600;5.718;2023-11-19T09:34:03;33.85;;;5.50;;
48052;SDS011;33824;51.600;5.718;2023-11-19T09:36:29;39.78;;;5.38;;
48052;SDS011;33824;51.600;5.718;2023-11-19T09:38:54;31.40;;;4.28;;
48052;SDS011;33824;51.600;5.718;2023-11-19T09:41:20;38.63;;;6.20;;
48052;SDS011;33824;51.600;5.718;2023-11-19T09:43:46;40.28;;;5.28;;
48052;SDS011;33824;51.600;5.718;2023-11-19T09:46:15;31.88;;;4.72;;
48052;SDS011;33824;51.600;5.718;2023-11-19T09:48:41;32.33;;;4.15;;
48052;SDS011;33824;51.600;5.718;2023-11-19T09:51:10;40.28;;;6.43;;
48052;SDS011;33824;51.600;5.718;2023-11-19T09:53:36;36.85;;;5.25;;
48052;SDS011;33824;51.600;5.718;2023-11-19T09:56:03;45.75;;;5.75;;
48052;SDS011;33824;51.600;5.718;2023-11-19T09:58:30;41.63;;;6.30;;
48052;SDS011;33824;51.600;5.718;2023-11-19T10:00:59;31.75;;;5.18;;
48052;SDS011;33824;51.600;5.718;2023-11-19T10:03:26;32.97;;;4.68;;
48052;SDS011;33824;51.600;5.718;2023-11-19T10:05:55;29.92;;;4.65;;
48052;SDS011;33824;51.600;5.718;2023-11-19T10:08:23;38.47;;;5.00;;
48052;SDS011;33824;51.600;5.718;2023-11-19T10:10:49;36.42;;;5.80;;
48052;SDS011;33824;51.600;5.718;2023-11-19T10:13:15;33.42;;;5.38;;
48052;SDS011;33824;51.600;5.718;2023-11-19T10:15:41;31.80;;;4.85;;
48052;SDS011;33824;51.600;5.718;2023-11-19T10:18:08;27.08;;;4.22;;
48052;SDS011;33824;51.600;5.718;2023-11-19T10:20:37;32.97;;;4.13;;
48052;SDS011;33824;51.600;5.718;2023-11-19T10:23:03;35.30;;;5.70;;
48052;SDS011;33824;51.600;5.718;2023-11-19T10:25:29;34.80;;;5.55;;
48052;SDS011;33824;51.600;5.718;2023-11-19T10:27:55;27.50;;;5.35;;
48052;SDS011;33824;51.600;5.718;2023-11-19T10:30:25;37.30;;;5.20;;
48052;SDS011;33824;51.600;5.718;2023-11-19T10:33:04;34.45;;;5.50;;
48052;SDS011;33824;51.600;5.718;2023-11-19T10:35:34;36.13;;;6.03;;
48052;SDS011;33824;51.600;5.718;2023-11-19T10:38:01;30.88;;;3.65;;
48052;SDS011;33824;51.600;5.718;2023-11-19T10:40:38;22.42;;;3.42;;
48052;SDS011;33824;51.600;5.718;2023-11-19T10:43:07;30.88;;;5.47;;
48052;SDS011;33824;51.600;5.718;2023-11-19T10:45:33;24.95;;;4.55;;
48052;SDS011;33824;51.600;5.718;2023-11-19T10:47:59;35.17;;;5.35;;
48052;SDS011;33824;51.600;5.718;2023-11-19T10:50:26;38.65;;;4.65;;
48052;SDS011;33824;51.600;5.718;2023-11-19T10:52:56;32.72;;;4.53;;
48052;SDS011;33824;51.600;5.718;2023-11-19T10:55:29;36.13;;;4.95;;
48052;SDS011;33824;51.600;5.718;2023-11-19T10:57:59;35.53;;;4.85;;
48052;SDS011;33824;51.600;5.718;2023-11-19T11:00:27;34.30;;;5.05;;
48052;SDS011;33824;51.600;5.718;2023-11-19T11:02:56;34.97;;;4.97;;
48052;SDS011;33824;51.600;5.718;2023-11-19T11:05:26;34.63;;;3.85;;
48052;SDS011;33824;51.600;5.718;2023-11-19T11:07:52;32.97;;;3.78;;
48052;SDS011;33824;51.600;5.718;2023-11-19T11:10:20;28.98;;;4.57;;
48052;SDS011;33824;51.600;5.718;2023-11-19T11:12:51;33.60;;;5.68;;
48052;SDS011;33824;51.600;5.718;2023-11-19T11:15:22;36.40;;;5.20;;
48052;SDS011;33824;51.600;5.718;2023-11-19T11:17:51;25.38;;;3.40;;
48052;SDS011;33824;51.600;5.718;2023-11-19T11:20:22;31.73;;;5.20;;
48052;SDS011;33824;51.600;5.718;2023-11-19T11:22:57;28.70;;;4.78;;
48052;SDS011;33824;51.600;5.718;2023-11-19T11:28:13;29.63;;;5.00;;
48052;SDS011;33824;51.600;5.718;2023-11-19T11:39:20;29.73;;;4.28;;
48052;SDS011;33824;51.600;5.718;2023-11-19T11:41:47;21.80;;;3.10;;
48052;SDS011;33824;51.600;5.718;2023-11-19T11:50:07;29.85;;;4.22;;
48052;SDS011;33824;51.600;5.718;2023-11-19T11:52:34;31.58;;;4.85;;
48052;SDS011;33824;51.600;5.718;2023-11-19T11:55:04;22.92;;;3.25;;
48052;SDS011;33824;51.600;5.718;2023-11-19T11:57:35;19.90;;;3.17;;
48052;SDS011;33824;51.600;5.718;2023-11-19T12:00:02;25.35;;;4.28;;
48052;SDS011;33824;51.600;5.718;2023-11-19T12:02:30;32.35;;;4.60;;
48052;SDS011;33824;51.600;5.718;2023-11-19T12:04:56;19.55;;;3.47;;
48052;SDS011;33824;51.600;5.718;2023-11-19T12:07:22;21.38;;;3.45;;
48052;SDS011;33824;51.600;5.718;2023-11-19T12:09:53;18.15;;;3.70;;
48052;SDS011;33824;51.600;5.718;2023-11-19T12:12:32;21.02;;;3.25;;
48052;SDS011;33824;51.600;5.718;2023-11-19T12:20:05;26.80;;;5.05;;
48052;SDS011;33824;51.600;5.718;2023-11-19T12:22:37;29.67;;;3.00;;
48052;SDS011;33824;51.600;5.718;2023-11-19T12:25:07;31.77;;;5.00;;
48052;SDS011;33824;51.600;5.718;2023-11-19T12:27:35;23.15;;;2.92;;
48052;SDS011;33824;51.600;5.718;2023-11-19T12:30:04;30.17;;;3.55;;
48052;SDS011;33824;51.600;5.718;2023-11-19T12:32:43;19.77;;;3.15;;
48052;SDS011;33824;51.600;5.718;2023-11-19T12:35:09;26.98;;;3.60;;
48052;SDS011;33824;51.600;5.718;2023-11-19T12:37:42;25.20;;;3.33;;
48052;SDS011;33824;51.600;5.718;2023-11-19T12:40:31;25.70;;;4.55;;
48052;SDS011;33824;51.600;5.718;2023-11-19T12:42:56;20.80;;;3.83;;
48052;SDS011;33824;51.600;5.718;2023-11-19T12:45:22;26.70;;;3.85;;
48052;SDS011;33824;51.600;5.718;2023-11-19T12:47:49;23.08;;;4.57;;
48052;SDS011;33824;51.600;5.718;2023-11-19T12:50:17;18.00;;;2.95;;
48052;SDS011;33824;51.600;5.718;2023-11-19T12:53:02;29.73;;;4.28;;
48052;SDS011;33824;51.600;5.718;2023-11-19T12:55:28;32.53;;;3.85;;
48052;SDS011;33824;51.600;5.718;2023-11-19T12:57:54;22.05;;;3.22;;
48052;SDS011;33824;51.600;5.718;2023-11-19T13:00:24;23.33;;;3.63;;
48052;SDS011;33824;51.600;5.718;2023-11-19T13:05:24;24.35;;;4.07;;
48052;SDS011;33824;51.600;5.718;2023-11-19T13:08:05;30.10;;;4.70;;
48052;SDS011;33824;51.600;5.718;2023-11-19T13:10:32;21.58;;;3.83;;
48052;SDS011;33824;51.600;5.718;2023-11-19T13:13:03;33.63;;;4.97;;
48052;SDS011;33824;51.600;5.718;2023-11-19T13:15:31;20.98;;;3.33;;
48052;SDS011;33824;51.600;5.718;2023-11-19T13:17:57;33.45;;;4.15;;
48052;SDS011;33824;51.600;5.718;2023-11-19T13:20:23;26.60;;;4.28;;
48052;SDS011;33824;51.600;5.718;2023-11-19T13:22:55;27.00;;;3.17;;
48052;SDS011;33824;51.600;5.718;2023-11-19T13:25:30;34.00;;;4.47;;
48052;SDS011;33824;51.600;5.718;2023-11-19T13:27:57;26.10;;;3.90;;
48052;SDS011;33824;51.600;5.718;2023-11-19T13:30:25;27.58;;;4.10;;
48052;SDS011;33824;51.600;5.718;2023-11-19T13:32:51;32.22;;;4.03;;
48052;SDS011;33824;51.600;5.718;2023-11-19T13:35:18;26.40;;;4.13;;
48052;SDS011;33824;51.600;5.718;2023-11-19T13:37:44;26.52;;;4.00;;
48052;SDS011;33824;51.600;5.718;2023-11-19T13:40:10;25.17;;;3.75;;
48052;SDS011;33824;51.600;5.718;2023-11-19T13:42:43;23.05;;;2.60;;
48052;SDS011;33824;51.600;5.718;2023-11-19T13:45:12;22.63;;;3.10;;
48052;SDS011;33824;51.600;5.718;2023-11-19T13:47:39;23.38;;;2.92;;
48052;SDS011;33824;51.600;5.718;2023-11-19T13:50:09;14.73;;;3.50;;
48052;SDS011;33824;51.600;5.718;2023-11-19T13:52:37;21.38;;;3.08;;
48052;SDS011;33824;51.600;5.718;2023-11-19T13:55:07;25.42;;;3.50;;
48052;SDS011;33824;51.600;5.718;2023-11-19T13:57:34;23.38;;;3.90;;
48052;SDS011;33824;51.600;5.718;2023-11-19T14:00:04;18.20;;;3.90;;
48052;SDS011;33824;51.600;5.718;2023-11-19T14:02:45;22.00;;;3.53;;
48052;SDS011;33824;51.600;5.718;2023-11-19T14:05:14;22.58;;;4.63;;
48052;SDS011;33824;51.600;5.718;2023-11-19T14:07:43;23.00;;;3.00;;
48052;SDS011;33824;51.600;5.718;2023-11-19T14:10:10;31.42;;;3.83;;
48052;SDS011;33824;51.600;5.718;2023-11-19T14:12:36;18.60;;;3.00;;
48052;SDS011;33824;51.600;5.718;2023-11-19T14:15:03;23.98;;;3.65;;
48052;SDS011;33824;51.600;5.718;2023-11-19T14:17:31;20.10;;;4.15;;
48052;SDS011;33824;51.600;5.718;2023-11-19T14:19:57;21.48;;;3.10;;
48052;SDS011;33824;51.600;5.718;2023-11-19T14:22:23;27.77;;;3.60;;
48052;SDS011;33824;51.600;5.718;2023-11-19T14:24:49;20.70;;;3.05;;
48052;SDS011;33824;51.600;5.718;2023-11-19T14:27:14;21.77;;;3.75;;
48052;SDS011;33824;51.600;5.718;2023-11-19T14:29:40;18.73;;;3.83;;
48052;SDS011;33824;51.600;5.718;2023-11-19T14:32:05;27.05;;;3.25;;
48052;SDS011;33824;51.600;5.718;2023-11-19T14:34:34;25.65;;;4.43;;
48052;SDS011;33824;51.600;5.718;2023-11-19T14:37:00;23.52;;;3.72;;
48052;SDS011;33824;51.600;5.718;2023-11-19T14:39:26;19.55;;;2.90;;
48052;SDS011;33824;51.600;5.718;2023-11-19T14:41:51;23.98;;;3.22;;
48052;SDS011;33824;51.600;5.718;2023-11-19T14:44:18;18.30;;;2.70;;
48052;SDS011;33824;51.600;5.718;2023-11-19T14:46:45;17.88;;;3.83;;
48052;SDS011;33824;51.600;5.718;2023-11-19T14:49:11;17.23;;;3.75;;
48052;SDS011;33824;51.600;5.718;2023-11-19T14:51:37;16.77;;;2.75;;
48052;SDS011;33824;51.600;5.718;2023-11-19T14:54:04;17.75;;;3.13;;
48052;SDS011;33824;51.600;5.718;2023-11-19T14:56:30;28.13;;;5.07;;
48052;SDS011;33824;51.600;5.718;2023-11-19T14:58:55;18.45;;;2.55;;